createdAt,value
2018-11-26T00:02:16.956Z,64.41
2018-11-26T00:05:21.568Z,63.98
2018-11-26T00:08:31.727Z,63.73
2018-11-26T00:11:37.500Z,63.86
2018-11-26T00:14:42.219Z,63.74
2018-11-26T00:17:46.748Z,63.50
2018-11-26T00:20:51.304Z,63.09
2018-11-26T00:23:56.000Z,63.48
2018-11-26T00:27:00.621Z,62.76
2018-11-26T00:30:05.702Z,63.26
2018-11-26T00:33:10.391Z,62.52
2018-11-26T00:36:14.963Z,62.53
2018-11-26T00:39:19.486Z,62.78
2018-11-26T00:42:24.084Z,63.14
2018-11-26T00:45:28.699Z,63.52
2018-11-26T00:48:33.232Z,63.47
2018-11-26T00:51:37.864Z,62.96
2018-11-26T00:54:42.428Z,62.67
2018-11-26T00:57:46.958Z,62.75
2018-11-26T01:00:51.511Z,63.11
2018-11-26T01:03:56.145Z,62.90
2018-11-26T01:07:01.003Z,62.52
2018-11-26T01:10:05.635Z,63.63
2018-11-26T01:13:10.199Z,63.33
2018-11-26T01:16:14.771Z,63.29
2018-11-26T01:19:19.459Z,63.62
2018-11-26T01:22:24.015Z,63.11
2018-11-26T01:25:28.567Z,63.67
2018-11-26T01:28:33.201Z,63.97
2018-11-26T01:31:37.781Z,63.92
2018-11-26T01:34:42.369Z,63.93
2018-11-26T01:37:46.924Z,63.46
2018-11-26T01:40:53.328Z,63.07
2018-11-26T01:43:57.914Z,62.95
2018-11-26T01:47:02.583Z,63.75
2018-11-26T01:50:07.815Z,63.40
2018-11-26T01:53:12.383Z,63.29
2018-11-26T01:56:16.907Z,63.28
2018-11-26T01:59:21.486Z,63.56
2018-11-26T02:02:26.131Z,64.58
2018-11-26T02:05:30.739Z,66.38
2018-11-26T02:08:35.434Z,65.71
2018-11-26T02:11:40.169Z,64.53
2018-11-26T02:14:44.711Z,63.69
2018-11-26T02:17:49.310Z,63.86
2018-11-26T02:20:53.916Z,64.32
2018-11-26T02:23:58.449Z,64.13
2018-11-26T02:27:03.030Z,63.74
2018-11-26T02:30:08.820Z,64.04
2018-11-26T02:33:13.413Z,64.22
2018-11-26T02:36:18.080Z,64.59
2018-11-26T02:39:22.603Z,65.24
2018-11-26T02:42:27.193Z,66.25
2018-11-26T02:45:31.810Z,65.30
2018-11-26T02:48:36.369Z,65.82
2018-11-26T02:51:40.952Z,65.53
2018-11-26T02:54:45.498Z,65.79
2018-11-26T02:57:50.076Z,66.12
2018-11-26T03:00:54.613Z,65.57
2018-11-26T03:03:59.221Z,65.56
2018-11-26T03:07:03.773Z,66.19
2018-11-26T03:10:09.849Z,65.88
2018-11-26T03:13:14.430Z,65.24
2018-11-26T03:16:18.984Z,65.74
2018-11-26T03:19:23.672Z,65.67
2018-11-26T03:22:28.227Z,65.75
2018-11-26T03:25:32.764Z,67.22
2018-11-26T03:28:37.332Z,67.54
2018-11-26T03:31:41.924Z,67.07
2018-11-26T03:34:46.505Z,66.49
2018-11-26T03:37:51.124Z,67.35
2018-11-26T03:40:55.684Z,66.71
2018-11-26T03:44:00.268Z,66.01
2018-11-26T03:47:04.877Z,66.52
2018-11-26T03:50:10.248Z,66.13
2018-11-26T03:53:14.823Z,66.44
2018-11-26T03:56:19.376Z,66.19
2018-11-26T03:59:23.922Z,67.39
2018-11-26T04:02:28.552Z,68.09
2018-11-26T04:05:33.091Z,67.56
2018-11-26T04:08:37.647Z,66.75
2018-11-26T04:11:42.212Z,66.43
2018-11-26T04:14:46.836Z,66.22
2018-11-26T04:17:51.356Z,66.06
2018-11-26T04:20:55.960Z,66.61
2018-11-26T04:24:00.473Z,66.28
2018-11-26T04:27:05.099Z,66.73
2018-11-26T04:30:12.334Z,66.70
2018-11-26T04:33:16.909Z,66.31
2018-11-26T04:36:21.494Z,68.29
2018-11-26T04:39:26.054Z,68.21
2018-11-26T04:42:30.657Z,67.62
2018-11-26T04:45:35.282Z,67.77
2018-11-26T04:48:39.860Z,67.64
2018-11-26T04:51:44.375Z,68.82
2018-11-26T04:54:48.980Z,67.28
2018-11-26T04:57:53.550Z,67.55
2018-11-26T05:00:58.109Z,67.59
2018-11-26T05:04:02.777Z,67.05
2018-11-26T05:07:07.394Z,67.13
2018-11-26T05:10:13.165Z,66.72
2018-11-26T05:13:17.769Z,66.74
2018-11-26T05:16:22.384Z,67.86
2018-11-26T05:19:26.926Z,68.43
2018-11-26T05:22:31.473Z,72.07
2018-11-26T05:25:36.025Z,69.28
2018-11-26T05:28:40.556Z,68.55
2018-11-26T05:31:45.088Z,69.50
2018-11-26T05:34:49.605Z,69.64
2018-11-26T05:37:54.184Z,69.31
2018-11-26T05:40:58.795Z,69.54
2018-11-26T05:44:03.329Z,68.25
2018-11-26T05:47:07.876Z,69.93
2018-11-26T05:50:13.788Z,68.44
2018-11-26T05:53:18.320Z,68.49
2018-11-26T05:56:22.988Z,69.93
2018-11-26T05:59:27.548Z,68.35
2018-11-26T06:02:32.144Z,68.28
2018-11-26T06:05:36.699Z,67.16
2018-11-26T06:08:41.254Z,68.22
2018-11-26T06:11:45.843Z,68.83
2018-11-26T06:14:50.380Z,67.71
2018-11-26T06:17:54.991Z,67.10
2018-11-26T06:20:59.565Z,66.36
2018-11-26T06:24:04.275Z,66.74
2018-11-26T06:27:08.871Z,66.55
2018-11-26T06:30:14.749Z,66.52
2018-11-26T06:33:19.281Z,66.50
2018-11-26T06:36:23.963Z,66.64
2018-11-26T06:39:28.533Z,65.98
2018-11-26T06:42:33.132Z,65.92
2018-11-26T06:45:37.716Z,66.55
2018-11-26T06:48:42.252Z,66.50
2018-11-26T06:51:46.855Z,66.22
2018-11-26T06:54:51.400Z,66.36
2018-11-26T06:57:56.125Z,65.97
2018-11-26T07:01:00.691Z,66.15
2018-11-26T07:04:05.287Z,66.05
2018-11-26T07:07:09.879Z,65.72
2018-11-26T07:10:15.020Z,66.91
2018-11-26T07:13:19.706Z,70.21
2018-11-26T07:16:24.300Z,68.35
2018-11-26T07:19:28.903Z,67.73
2018-11-26T07:22:33.431Z,67.75
2018-11-26T07:25:38.114Z,66.92
2018-11-26T07:28:43.056Z,67.06
2018-11-26T07:31:47.683Z,67.79
2018-11-26T07:34:52.291Z,66.61
2018-11-26T07:37:56.931Z,66.52
2018-11-26T07:41:01.599Z,66.68
2018-11-26T07:44:08.931Z,66.16
2018-11-26T07:47:14.653Z,66.49
2018-11-26T07:50:19.392Z,66.16
2018-11-26T07:53:24.213Z,66.68
2018-11-26T07:56:29.024Z,66.60
2018-11-26T07:59:34.949Z,66.88
2018-11-26T08:02:39.579Z,66.66
2018-11-26T08:05:44.320Z,67.16
2018-11-26T08:08:48.915Z,67.58
2018-11-26T08:11:53.547Z,67.90
2018-11-26T08:14:58.120Z,68.16
2018-11-26T08:18:02.840Z,67.62
2018-11-26T08:21:07.757Z,67.82
2018-11-26T08:24:12.328Z,67.85
2018-11-26T08:27:16.858Z,68.30
2018-11-26T08:30:24.220Z,69.25
2018-11-26T08:33:29.692Z,68.31
2018-11-26T08:36:34.347Z,69.27
2018-11-26T08:39:43.650Z,70.37
2018-11-26T08:42:53.402Z,69.73
2018-11-26T08:45:58.891Z,70.36
2018-11-26T08:49:34.048Z,69.20
2018-11-26T08:52:38.710Z,69.14
2018-11-26T08:55:43.444Z,69.60
2018-11-26T08:58:48.019Z,69.44
2018-11-26T09:01:57.569Z,69.12
2018-11-26T09:05:07.356Z,69.67
2018-11-26T09:08:11.982Z,69.27
2018-11-26T09:11:16.828Z,70.25
2018-11-26T09:14:21.441Z,72.53
2018-11-26T09:17:26.016Z,71.31
2018-11-26T09:20:30.638Z,70.64
2018-11-26T09:23:35.172Z,69.79
2018-11-26T09:26:39.827Z,69.63
2018-11-26T09:29:44.634Z,71.02
2018-11-26T09:32:49.456Z,71.38
2018-11-26T09:35:54.193Z,72.67
2018-11-26T09:38:58.751Z,73.67
2018-11-26T09:42:03.435Z,75.09
2018-11-26T09:45:10.276Z,73.34
2018-11-26T09:48:14.812Z,73.66
2018-11-26T09:51:19.360Z,71.13
2018-11-26T09:54:26.027Z,72.34
2018-11-26T09:57:28.718Z,72.43
2018-11-26T10:00:33.265Z,71.49
2018-11-26T10:03:37.841Z,71.05
2018-11-26T10:06:42.392Z,70.34
2018-11-26T10:09:47.016Z,69.83
2018-11-26T10:12:51.603Z,69.83
2018-11-26T10:15:56.148Z,70.04
2018-11-26T10:19:00.735Z,70.65
2018-11-26T10:22:05.350Z,72.07
2018-11-26T10:25:11.659Z,72.37
2018-11-26T10:28:16.304Z,71.33
2018-11-26T10:31:20.859Z,70.53
2018-11-26T10:34:25.417Z,70.61
2018-11-26T10:37:29.989Z,70.39
2018-11-26T10:40:34.604Z,69.93
2018-11-26T10:43:39.228Z,71.05
2018-11-26T10:46:43.835Z,70.61
2018-11-26T10:49:48.384Z,70.13
2018-11-26T10:52:54.217Z,69.93
2018-11-26T10:55:58.884Z,69.90
2018-11-26T10:59:03.524Z,70.20
2018-11-26T11:02:13.356Z,70.45
2018-11-26T11:05:17.977Z,70.78
2018-11-26T11:08:23.723Z,71.33
2018-11-26T11:11:27.184Z,71.14
2018-11-26T11:14:31.775Z,71.46
2018-11-26T11:17:36.428Z,72.11
2018-11-26T11:20:41.009Z,71.39
2018-11-26T11:23:45.659Z,71.93
2018-11-26T11:26:50.215Z,72.37
2018-11-26T11:29:54.792Z,71.94
2018-11-26T11:32:59.490Z,71.32
2018-11-26T11:36:04.057Z,71.68
2018-11-26T11:39:09.857Z,70.87
2018-11-26T11:42:14.404Z,71.48
2018-11-26T11:45:19.153Z,70.66
2018-11-26T11:48:23.797Z,71.66
2018-11-26T11:51:28.327Z,71.31
2018-11-26T11:54:32.928Z,71.61
2018-11-26T11:57:37.805Z,70.73
2018-11-26T12:00:44.416Z,71.12
2018-11-26T12:03:48.948Z,71.02
2018-11-26T12:06:53.600Z,71.48
2018-11-26T12:09:58.219Z,71.54
2018-11-26T12:13:02.814Z,71.83
2018-11-26T12:16:07.934Z,72.63
2018-11-26T12:19:12.569Z,72.27
2018-11-26T12:22:17.121Z,72.39
2018-11-26T12:25:22.467Z,73.01
2018-11-26T12:28:27.053Z,72.12
2018-11-26T12:31:32.502Z,73.10
2018-11-26T12:34:37.101Z,74.14
2018-11-26T12:37:42.218Z,73.35
2018-11-26T12:40:46.890Z,72.05
2018-11-26T12:43:51.450Z,71.13
2018-11-26T12:46:56.022Z,70.47
2018-11-26T12:50:00.560Z,70.11
2018-11-26T12:53:07.179Z,71.54
2018-11-26T12:56:11.801Z,71.15
2018-11-26T12:59:18.171Z,71.01
2018-11-26T13:02:22.918Z,69.97
2018-11-26T13:05:27.547Z,69.47
2018-11-26T13:08:32.081Z,68.77
2018-11-26T13:11:36.710Z,68.00
2018-11-26T13:14:41.257Z,68.46
2018-11-26T13:17:46.013Z,67.78
2018-11-26T13:20:50.549Z,68.39
2018-11-26T13:23:55.103Z,68.75
2018-11-26T13:26:59.693Z,68.80
2018-11-26T13:30:08.578Z,69.25
2018-11-26T13:33:14.849Z,69.09
2018-11-26T13:36:19.512Z,68.19
2018-11-26T13:39:24.145Z,68.14
2018-11-26T13:42:28.669Z,68.21
2018-11-26T13:45:42.187Z,69.03
2018-11-26T13:48:47.516Z,69.86
2018-11-26T13:51:52.067Z,69.55
2018-11-26T13:54:56.617Z,68.82
2018-11-26T13:58:01.218Z,68.65
2018-11-26T14:01:06.264Z,70.09
2018-11-26T14:04:10.863Z,69.15
2018-11-26T14:07:15.481Z,68.80
2018-11-26T14:10:23.294Z,70.11
2018-11-26T14:13:27.837Z,68.75
2018-11-26T14:16:32.513Z,69.18
2018-11-26T14:19:37.056Z,68.62
2018-11-26T14:22:41.653Z,68.76
2018-11-26T14:25:46.214Z,68.77
2018-11-26T14:28:50.818Z,68.55
2018-11-26T14:31:55.418Z,68.94
2018-11-26T14:34:59.959Z,68.74
2018-11-26T14:38:06.367Z,69.15
2018-11-26T14:41:10.977Z,69.42
2018-11-26T14:44:15.538Z,70.40
2018-11-26T14:47:20.289Z,69.85
2018-11-26T14:50:24.883Z,70.11
2018-11-26T14:53:29.472Z,70.43
2018-11-26T14:56:34.131Z,70.06
2018-11-26T14:59:38.705Z,69.57
2018-11-26T15:02:43.735Z,69.07
2018-11-26T15:05:48.135Z,69.44
2018-11-26T15:08:52.684Z,70.22
2018-11-26T15:11:57.238Z,69.46
2018-11-26T15:15:01.808Z,69.84
2018-11-26T15:18:06.654Z,69.82
2018-11-26T15:21:11.293Z,69.80
2018-11-26T15:24:15.873Z,69.21
2018-11-26T15:27:20.501Z,69.65
2018-11-26T15:30:25.130Z,69.74
2018-11-26T15:33:29.686Z,69.01
2018-11-26T15:36:34.721Z,68.92
2018-11-26T15:39:39.350Z,68.75
2018-11-26T15:42:44.054Z,69.16
2018-11-26T15:45:48.602Z,68.50
2018-11-26T15:48:53.181Z,68.83
2018-11-26T15:51:57.707Z,68.87
2018-11-26T15:55:02.921Z,68.75
2018-11-26T15:58:08.634Z,70.04
2018-11-26T16:01:13.201Z,70.01
2018-11-26T16:04:17.737Z,69.21
2018-11-26T16:07:22.277Z,69.84
2018-11-26T16:10:26.905Z,69.43
2018-11-26T16:13:31.509Z,69.45
2018-11-26T16:16:36.389Z,68.48
2018-11-26T16:19:40.981Z,68.67
2018-11-26T16:22:45.552Z,67.77
2018-11-26T16:25:50.259Z,68.00
2018-11-26T16:28:54.821Z,68.90
2018-11-26T16:31:59.497Z,67.92
2018-11-26T16:35:04.137Z,67.92
2018-11-26T16:38:09.926Z,69.38
2018-11-26T16:41:14.550Z,69.64
2018-11-26T16:44:19.171Z,69.83
2018-11-26T16:47:23.713Z,69.33
2018-11-26T16:50:31.522Z,70.84
2018-11-26T16:53:36.141Z,70.39
2018-11-26T16:56:40.675Z,69.27
2018-11-26T16:59:45.348Z,69.36
2018-11-26T17:02:51.141Z,69.08
2018-11-26T17:05:55.821Z,68.87
2018-11-26T17:09:00.383Z,68.09
2018-11-26T17:12:05.009Z,68.68
2018-11-26T17:15:13.769Z,68.06
2018-11-26T17:18:18.385Z,68.69
2018-11-26T17:21:23.001Z,67.73
2018-11-26T17:24:27.574Z,67.74
2018-11-26T17:27:32.201Z,67.70
2018-11-26T17:30:38.705Z,67.59
2018-11-26T17:33:43.304Z,67.88
2018-11-26T17:36:47.863Z,67.83
2018-11-26T17:39:52.481Z,67.72
2018-11-26T17:42:57.247Z,67.96
2018-11-26T17:46:01.874Z,67.80
2018-11-26T17:49:06.897Z,67.44
2018-11-26T17:52:11.453Z,67.86
2018-11-26T17:55:16.051Z,68.56
2018-11-26T17:58:22.008Z,68.84
2018-11-26T18:01:34.927Z,69.16
2018-11-26T18:04:39.497Z,69.22
2018-11-26T18:07:44.293Z,68.78
2018-11-26T18:10:48.977Z,68.51
2018-11-26T18:13:53.737Z,68.96
2018-11-26T18:16:58.305Z,69.00
2018-11-26T18:20:03.449Z,68.49
2018-11-26T18:23:08.943Z,68.09
2018-11-26T18:26:13.715Z,67.78
2018-11-26T18:29:18.455Z,68.40
2018-11-26T18:32:23.113Z,67.88
2018-11-26T18:35:27.938Z,68.88
2018-11-26T18:38:32.542Z,68.19
2018-11-26T18:41:37.214Z,68.73
2018-11-26T18:44:41.754Z,67.83
2018-11-26T18:47:47.985Z,68.05
2018-11-26T18:50:52.533Z,67.70
2018-11-26T18:53:57.154Z,67.47
2018-11-26T18:57:01.816Z,67.91
2018-11-26T19:00:21.359Z,68.87
2018-11-26T19:03:25.941Z,68.94
2018-11-26T19:06:30.530Z,69.51
2018-11-26T19:09:35.151Z,69.76
2018-11-26T19:12:39.722Z,68.69
2018-11-26T19:15:46.334Z,68.48
2018-11-26T19:18:51.055Z,68.92
2018-11-26T19:21:55.640Z,68.83
2018-11-26T19:25:00.207Z,68.55
2018-11-26T19:28:04.930Z,70.24
2018-11-26T19:31:09.544Z,69.47
2018-11-26T19:34:14.134Z,70.10
2018-11-26T19:37:18.694Z,70.78
2018-11-26T19:40:23.314Z,71.18
2018-11-26T19:43:27.981Z,70.73
2018-11-26T19:46:32.552Z,70.39
2018-11-26T19:49:37.231Z,69.79
2018-11-26T19:52:41.816Z,69.72
2018-11-26T19:55:46.437Z,69.84
2018-11-26T19:58:51.074Z,70.20
2018-11-26T20:01:55.600Z,69.42
2018-11-26T20:05:01.931Z,70.66
2018-11-26T20:08:06.921Z,69.40
2018-11-26T20:11:12.533Z,69.35
2018-11-26T20:14:21.478Z,69.31
2018-11-26T20:17:21.923Z,69.56
2018-11-26T20:20:26.499Z,68.62
2018-11-26T20:23:31.036Z,69.12
2018-11-26T20:26:35.597Z,69.81
2018-11-26T20:29:40.161Z,70.03
2018-11-26T20:32:47.177Z,69.18
2018-11-26T20:35:51.808Z,68.92
2018-11-26T20:38:56.464Z,69.28
2018-11-26T20:42:01.037Z,69.67
2018-11-26T20:45:09.916Z,69.06
2018-11-26T20:48:14.563Z,69.84
2018-11-26T20:51:19.167Z,70.53
2018-11-26T20:54:23.855Z,70.68
2018-11-26T20:57:28.473Z,70.10
2018-11-26T21:00:33.184Z,69.88
2018-11-26T21:03:41.070Z,70.93
2018-11-26T21:06:46.028Z,70.01
2018-11-26T21:09:50.971Z,70.43
2018-11-26T21:12:55.944Z,70.22
2018-11-26T21:16:00.921Z,70.42
2018-11-26T21:19:06.324Z,70.47
2018-11-26T21:22:11.350Z,71.01
2018-11-26T21:25:17.179Z,70.20
2018-11-26T21:28:22.191Z,70.10
2018-11-26T21:31:27.132Z,70.92
2018-11-26T21:34:32.153Z,70.46
2018-11-26T21:37:37.146Z,70.53
2018-11-26T21:40:42.554Z,70.41
2018-11-26T21:43:47.553Z,71.29
2018-11-26T21:46:53.038Z,72.55
2018-11-26T21:49:57.592Z,72.10
2018-11-26T21:53:02.487Z,72.16
2018-11-26T21:56:07.473Z,72.12
2018-11-26T21:59:12.405Z,71.76
2018-11-26T22:02:17.437Z,72.10
2018-11-26T22:05:23.057Z,73.06
2018-11-26T22:08:28.115Z,72.28
2018-11-26T22:11:33.114Z,71.72
2018-11-26T22:14:38.053Z,72.01
2018-11-26T22:17:43.157Z,72.31
2018-11-26T22:20:48.094Z,72.65
2018-11-26T22:23:53.004Z,74.04
2018-11-26T22:26:57.948Z,74.88
2018-11-26T22:30:02.874Z,74.51
2018-11-26T22:33:09.033Z,72.71
2018-11-26T22:36:12.822Z,72.30
2018-11-26T22:39:17.817Z,74.19
2018-11-26T22:42:22.473Z,74.86
2018-11-26T22:45:30.997Z,73.68
2018-11-26T22:48:35.545Z,72.97
2018-11-26T22:51:40.148Z,72.23
2018-11-26T22:54:44.775Z,72.19
2018-11-26T22:57:49.365Z,71.31
2018-11-26T23:00:55.256Z,71.50
2018-11-26T23:03:59.853Z,71.94
2018-11-26T23:07:04.484Z,72.53
2018-11-26T23:10:09.951Z,72.79
2018-11-26T23:13:14.573Z,73.38
2018-11-26T23:16:19.143Z,74.56
2018-11-26T23:19:23.757Z,72.94
2018-11-26T23:22:28.353Z,72.74
2018-11-26T23:25:32.937Z,73.91
2018-11-26T23:28:37.527Z,72.82
2018-11-26T23:31:42.115Z,72.28
2018-11-26T23:34:46.722Z,73.41
2018-11-26T23:37:51.322Z,75.44
2018-11-26T23:40:55.982Z,73.63
2018-11-26T23:44:00.563Z,72.50
2018-11-26T23:47:05.400Z,72.83
2018-11-26T23:50:11.043Z,72.93
2018-11-26T23:53:15.578Z,72.79
2018-11-26T23:56:20.166Z,72.73
2018-11-26T23:59:24.886Z,72.70
